Time;durP1;ratioP1;P1;durP2;ratioP2;P2;SDS_P1;SDS_P2;PMS_P1;PMS_P2;Temp;Humidity;BMP_temperature;BMP_pressure;BME280_temperature;BME280_humidity;BME280_pressure;Samples;Min_cycle;Max_cycle;Signal;HPM_P1;HPM_P2
2024/03/06 00:01:44;;;;;;;10.88;4.63;;;13.80;93.40;;;;;;5034150;28;20096;-71
2024/03/06 00:04:10;;;;;;;15.70;4.40;;;13.80;93.40;;;;;;5034111;28;20041;-71
2024/03/06 00:06:36;;;;;;;19.23;4.55;;;13.80;93.70;;;;;;5034140;28;20042;-71
2024/03/06 00:09:05;;;;;;;15.20;4.53;;;13.80;93.60;;;;;;5034085;28;20030;-71
2024/03/06 00:11:31;;;;;;;11.77;4.47;;;13.80;93.70;;;;;;5034005;28;20607;-71
2024/03/06 00:13:56;;;;;;;9.98;4.28;;;13.80;93.70;;;;;;5034117;28;20096;-71
2024/03/06 00:16:22;;;;;;;9.65;4.75;;;13.90;93.70;;;;;;5034347;28;20038;-71
2024/03/06 00:18:48;;;;;;;11.95;4.40;;;13.80;93.70;;;;;;5034288;28;20037;-71
2024/03/06 00:21:14;;;;;;;19.35;5.13;;;13.80;93.50;;;;;;5034299;28;20036;-71
2024/03/06 00:23:40;;;;;;;14.02;4.45;;;13.80;93.40;;;;;;5033685;28;20113;-72
2024/03/06 00:26:05;;;;;;;11.65;3.92;;;13.80;93.50;;;;;;5033909;28;20038;-71
2024/03/06 00:28:31;;;;;;;11.75;4.30;;;13.90;93.50;;;;;;5033709;28;20065;-72
2024/03/06 00:30:57;;;;;;;8.98;3.88;;;13.90;93.70;;;;;;5033861;28;20045;-71
2024/03/06 00:33:23;;;;;;;11.63;4.25;;;13.90;93.60;;;;;;5016488;28;20045;-71
2024/03/06 00:35:49;;;;;;;12.18;4.93;;;13.90;93.70;;;;;;5034203;28;20037;-71
2024/03/06 00:38:15;;;;;;;16.77;4.65;;;13.80;93.50;;;;;;5034138;28;20030;-71
2024/03/06 00:40:42;;;;;;;8.23;4.35;;;13.90;93.40;;;;;;5034724;28;20392;-71
2024/03/06 00:43:07;;;;;;;13.73;4.97;;;13.90;93.80;;;;;;5034578;28;20041;-71
2024/03/06 00:45:33;;;;;;;8.85;4.25;;;13.80;93.70;;;;;;5034526;28;20037;-71
2024/03/06 00:47:59;;;;;;;14.00;5.00;;;13.80;93.60;;;;;;5034346;28;20493;-71
2024/03/06 00:50:28;;;;;;;11.05;4.65;;;13.80;93.70;;;;;;5034307;28;20036;-71
2024/03/06 00:57:36;;;;;;;16.10;5.32;;;13.90;93.70;;;;;;4878148;29;20025;-71
2024/03/06 01:00:31;;;;;;;13.63;4.53;;;13.90;93.60;;;;;;4868922;29;20038;-71
2024/03/06 01:03:21;;;;;;;11.90;4.28;;;14.00;93.40;;;;;;4841147;29;20073;-71
2024/03/06 01:16:41;;;;;;;16.60;4.97;;;14.00;93.10;;;;;;4736709;30;20048;-71
2024/03/06 01:19:07;;;;;;;15.43;5.30;;;14.00;93.20;;;;;;4790774;29;20472;-71
2024/03/06 01:21:34;;;;;;;11.35;5.03;;;13.90;93.40;;;;;;4859304;29;20045;-71
2024/03/06 01:24:01;;;;;;;11.20;4.57;;;14.00;93.40;;;;;;4957274;28;20033;-71
2024/03/06 01:26:26;;;;;;;11.45;5.18;;;14.00;93.40;;;;;;5033553;28;20388;-71
2024/03/06 01:28:52;;;;;;;13.13;4.80;;;14.00;93.30;;;;;;5033632;28;20038;-71
2024/03/06 01:31:18;;;;;;;11.65;4.72;;;14.00;93.50;;;;;;5033236;28;20037;-71
2024/03/06 01:33:44;;;;;;;15.00;5.40;;;13.90;93.40;;;;;;5033232;28;20034;-71
2024/03/06 01:36:10;;;;;;;14.68;5.03;;;13.90;93.70;;;;;;5033231;28;20116;-71
2024/03/06 01:38:35;;;;;;;12.18;4.82;;;14.00;93.70;;;;;;5015640;28;20033;-71
2024/03/06 01:41:01;;;;;;;10.10;4.80;;;14.00;93.80;;;;;;5033262;28;20036;-71
2024/03/06 01:43:27;;;;;;;16.08;4.78;;;14.00;94.00;;;;;;5033069;28;20033;-71
2024/03/06 01:45:53;;;;;;;11.65;4.60;;;13.90;94.10;;;;;;5032743;28;20551;-71
2024/03/06 01:48:26;;;;;;;16.08;4.53;;;13.90;94.30;;;;;;5033047;28;20045;-71
2024/03/06 01:50:58;;;;;;;10.60;4.45;;;13.90;94.50;;;;;;5032550;28;20029;-71
2024/03/06 01:53:26;;;;;;;14.77;4.65;;;13.90;94.10;;;;;;5033018;28;20107;-71
2024/03/06 01:55:52;;;;;;;14.35;4.25;;;13.90;94.10;;;;;;5032995;28;20528;-71
2024/03/06 01:58:20;;;;;;;9.95;4.70;;;13.90;94.50;;;;;;5031209;28;20038;-71
2024/03/06 02:00:45;;;;;;;12.40;4.97;;;13.80;94.70;;;;;;5030303;28;20106;-71
2024/03/06 02:03:12;;;;;;;14.75;5.93;;;13.80;94.50;;;;;;5030192;28;20042;-71
2024/03/06 02:05:37;;;;;;;10.38;5.18;;;13.80;94.50;;;;;;5032199;28;20041;-71
2024/03/06 02:08:05;;;;;;;19.75;5.38;;;13.80;94.60;;;;;;5032728;28;20038;-71
2024/03/06 02:10:31;;;;;;;16.80;5.78;;;13.80;94.80;;;;;;5032708;28;20478;-71
2024/03/06 02:12:57;;;;;;;19.20;5.72;;;13.70;95.10;;;;;;5014452;28;20052;-71
2024/03/06 02:15:23;;;;;;;12.13;4.97;;;13.70;95.60;;;;;;5032502;28;20513;-71
2024/03/06 02:17:49;;;;;;;13.65;5.13;;;13.70;95.90;;;;;;5032597;28;20052;-71
2024/03/06 02:20:15;;;;;;;15.48;5.65;;;13.60;96.30;;;;;;5032840;28;20429;-71
2024/03/06 02:22:41;;;;;;;15.15;5.53;;;13.50;97.20;;;;;;5033575;28;20033;-71
2024/03/06 02:25:12;;;;;;;16.88;5.75;;;13.50;97.80;;;;;;5033284;28;20466;-71
2024/03/06 02:27:41;;;;;;;15.50;5.57;;;13.40;98.20;;;;;;5032980;28;20453;-71
2024/03/06 02:31:03;;;;;;;15.05;5.60;;;13.40;98.80;;;;;;5033067;28;20049;-71
2024/03/06 02:37:46;;;;;;;16.05;5.13;;;13.40;99.90;;;;;;4914210;29;20187;-70
2024/03/06 02:40:12;;;;;;;10.68;5.40;;;13.30;99.90;;;;;;4914703;29;20115;-71
2024/03/06 02:42:38;;;;;;;15.52;5.90;;;13.30;99.90;;;;;;4930912;29;20047;-71
2024/03/06 02:46:03;;;;;;;19.33;6.38;;;13.20;99.90;;;;;;4933161;29;20040;-71
2024/03/06 02:48:55;;;;;;;19.13;5.57;;;13.20;99.90;;;;;;4827195;29;20054;-71
2024/03/06 02:52:06;;;;;;;12.88;5.80;;;13.10;99.90;;;;;;4874616;29;20056;-71
2024/03/06 02:54:33;;;;;;;17.60;5.95;;;13.10;99.90;;;;;;4861102;29;20411;-71
2024/03/06 02:56:58;;;;;;;17.95;6.18;;;13.00;99.90;;;;;;4912187;29;20152;-71
2024/03/06 02:59:24;;;;;;;14.85;6.35;;;12.90;99.90;;;;;;4973532;28;20117;-71
2024/03/06 03:01:50;;;;;;;13.75;5.47;;;12.90;99.90;;;;;;5016331;28;20041;-71
2024/03/06 03:04:16;;;;;;;23.55;7.13;;;12.80;99.90;;;;;;5016271;28;20049;-71
2024/03/06 03:06:42;;;;;;;14.95;5.70;;;12.80;99.90;;;;;;5014780;28;20057;-71
2024/03/06 03:09:11;;;;;;;13.95;6.45;;;12.70;99.90;;;;;;5016193;28;20033;-71
2024/03/06 03:11:37;;;;;;;12.05;6.13;;;12.70;99.90;;;;;;5016066;28;20072;-71
2024/03/06 03:14:03;;;;;;;11.10;5.65;;;12.70;99.90;;;;;;5015968;28;20038;-71
2024/03/06 03:16:29;;;;;;;9.88;6.05;;;12.70;99.90;;;;;;5015938;28;20041;-71
2024/03/06 03:18:55;;;;;;;10.52;5.93;;;12.70;99.90;;;;;;5015910;28;20053;-71
2024/03/06 03:21:22;;;;;;;13.57;6.00;;;12.70;99.90;;;;;;5015885;28;20030;-71
2024/03/06 03:23:49;;;;;;;13.10;5.75;;;12.70;99.90;;;;;;5016058;28;20128;-71
2024/03/06 03:26:15;;;;;;;14.30;6.28;;;12.70;99.90;;;;;;5016159;28;20113;-71
2024/03/06 03:28:41;;;;;;;14.70;6.05;;;12.80;99.90;;;;;;5015715;28;20486;-71
2024/03/06 03:31:08;;;;;;;13.40;6.13;;;12.80;99.90;;;;;;5015865;28;20076;-71
2024/03/06 03:33:38;;;;;;;15.70;6.28;;;12.80;99.90;;;;;;5016112;28;20092;-71
2024/03/06 03:36:06;;;;;;;14.35;6.30;;;12.80;99.90;;;;;;5016027;28;20034;-71
2024/03/06 03:38:33;;;;;;;10.20;5.25;;;12.80;99.90;;;;;;5015562;28;20030;-71
2024/03/06 03:40:59;;;;;;;14.52;5.80;;;12.80;99.90;;;;;;5015696;28;20105;-71
2024/03/06 03:43:24;;;;;;;10.30;5.78;;;12.80;99.90;;;;;;5015908;28;20038;-72
2024/03/06 03:45:50;;;;;;;15.93;6.68;;;12.80;99.90;;;;;;5014251;28;20431;-71
2024/03/06 03:48:16;;;;;;;13.85;5.97;;;12.80;99.90;;;;;;5028780;28;20409;-71
2024/03/06 03:50:42;;;;;;;12.13;5.68;;;12.80;99.90;;;;;;5034957;28;20064;-71
2024/03/06 03:53:07;;;;;;;18.63;6.57;;;12.80;99.90;;;;;;5035545;28;20489;-71
2024/03/06 03:55:33;;;;;;;15.07;6.82;;;12.90;99.90;;;;;;5035814;28;20026;-71
2024/03/06 03:57:59;;;;;;;11.85;5.43;;;12.90;99.90;;;;;;5035760;28;20056;-71
2024/03/06 04:00:25;;;;;;;9.27;5.93;;;13.00;99.90;;;;;;5035772;28;20385;-71
2024/03/06 04:02:51;;;;;;;15.40;6.13;;;13.00;99.90;;;;;;5035573;28;20440;-71
2024/03/06 04:05:47;;;;;;;13.05;6.30;;;12.90;99.90;;;;;;5035784;28;20109;-71
2024/03/06 04:09:14;;;;;;;15.73;6.38;;;12.90;99.90;;;;;;4929745;29;20043;-71
2024/03/06 04:12:26;;;;;;;13.63;7.32;;;12.80;99.90;;;;;;4915378;28;20040;-71
2024/03/06 04:15:01;;;;;;;17.48;7.05;;;12.70;99.90;;;;;;5033455;28;20397;-71
2024/03/06 04:17:37;;;;;;;;;;;;;;;;;;;;;
2024/03/06 04:24:47;;;;;;;14.88;7.00;;;12.70;99.90;;;;;;4916275;29;20121;-71
2024/03/06 04:27:16;;;;;;;21.50;7.57;;;12.70;99.90;;;;;;4878439;29;20132;-71
2024/03/06 04:29:52;;;;;;;15.38;6.90;;;12.60;99.90;;;;;;4934180;29;20448;-71
2024/03/06 04:32:18;;;;;;;12.50;6.63;;;12.60;99.90;;;;;;4934975;29;20526;-72
2024/03/06 04:34:44;;;;;;;15.00;6.57;;;12.50;99.90;;;;;;5019453;28;20121;-74
2024/03/06 04:37:10;;;;;;;15.75;7.47;;;12.50;99.90;;;;;;5034349;28;20485;-71
2024/03/06 04:39:35;;;;;;;23.55;7.50;;;12.50;99.90;;;;;;5034622;28;20025;-71
2024/03/06 04:42:01;;;;;;;15.85;7.18;;;12.40;99.90;;;;;;5034416;28;20037;-71
2024/03/06 04:44:28;;;;;;;14.95;6.68;;;12.40;99.90;;;;;;5034047;28;20553;-71
2024/03/06 04:46:54;;;;;;;12.15;7.00;;;12.40;99.90;;;;;;5033480;28;20048;-71
2024/03/06 04:49:20;;;;;;;15.48;7.13;;;12.40;99.90;;;;;;5033058;28;20033;-71
2024/03/06 04:51:45;;;;;;;15.63;7.32;;;12.40;99.90;;;;;;5031234;28;20057;-71
2024/03/06 04:54:11;;;;;;;13.23;7.70;;;12.40;99.90;;;;;;5033340;28;20071;-71
2024/03/06 04:56:37;;;;;;;16.30;6.97;;;12.40;99.90;;;;;;5033830;28;20040;-71
2024/03/06 04:59:03;;;;;;;12.32;7.13;;;12.40;99.90;;;;;;5033515;28;20029;-71
2024/03/06 05:01:29;;;;;;;14.30;7.22;;;12.40;99.90;;;;;;5033703;28;20025;-71
2024/03/06 05:03:55;;;;;;;16.45;7.43;;;12.50;99.90;;;;;;5033701;28;20033;-71
2024/03/06 05:06:22;;;;;;;18.55;8.68;;;12.40;99.90;;;;;;5033598;28;20032;-71
2024/03/06 05:08:48;;;;;;;13.82;7.95;;;12.40;99.90;;;;;;5033961;28;20037;-71
2024/03/06 05:11:14;;;;;;;13.82;7.00;;;12.30;99.90;;;;;;5033103;28;20044;-71
2024/03/06 05:13:40;;;;;;;12.93;7.72;;;12.30;99.90;;;;;;5033791;28;20140;-71
2024/03/06 05:16:07;;;;;;;14.43;7.85;;;12.30;99.90;;;;;;5015268;28;20037;-71
2024/03/06 05:18:34;;;;;;;14.48;7.70;;;12.30;99.90;;;;;;5031609;28;20123;-71
2024/03/06 05:21:00;;;;;;;14.98;7.85;;;12.30;99.90;;;;;;5032427;28;20026;-71
2024/03/06 05:23:26;;;;;;;17.42;7.93;;;12.30;99.90;;;;;;5033547;28;20074;-71
2024/03/06 05:25:52;;;;;;;12.23;7.43;;;12.30;99.90;;;;;;5033227;28;20040;-71
2024/03/06 05:28:18;;;;;;;17.00;7.65;;;12.30;99.90;;;;;;5033394;28;20034;-71
2024/03/06 05:30:44;;;;;;;15.18;7.25;;;12.40;99.90;;;;;;5032960;28;20113;-71
2024/03/06 05:33:10;;;;;;;15.70;7.85;;;12.40;99.90;;;;;;5033048;28;20045;-71
2024/03/06 05:35:36;;;;;;;14.55;8.18;;;12.40;99.90;;;;;;5032928;28;20033;-71
2024/03/06 05:38:03;;;;;;;17.58;8.25;;;12.40;99.90;;;;;;5031948;28;20654;-71
2024/03/06 05:40:30;;;;;;;16.05;8.38;;;12.30;99.90;;;;;;5031981;28;20041;-71
2024/03/06 05:43:04;;;;;;;16.55;9.68;;;12.30;99.90;;;;;;5031855;28;20112;-71
2024/03/06 05:46:11;;;;;;;18.67;10.07;;;12.30;99.90;;;;;;5031781;28;20061;-71
2024/03/06 05:49:21;;;;;;;18.92;9.95;;;12.30;99.90;;;;;;4931831;29;20415;-71
2024/03/06 05:52:24;;;;;;;15.07;10.23;;;12.30;99.90;;;;;;4916950;29;20077;-71
2024/03/06 05:58:31;;;;;;;17.00;10.52;;;12.30;99.90;;;;;;4875863;29;20029;-71
2024/03/06 06:01:50;;;;;;;18.27;11.88;;;12.30;99.90;;;;;;4929196;29;20419;-71
2024/03/06 06:05:13;;;;;;;16.70;11.00;;;12.20;99.90;;;;;;4918213;28;20035;-71
2024/03/06 06:07:44;;;;;;;21.08;12.15;;;12.20;99.90;;;;;;4898429;29;20043;-73
2024/03/06 06:10:10;;;;;;;16.90;11.00;;;12.20;99.90;;;;;;4931086;29;20126;-71
2024/03/06 06:12:36;;;;;;;19.13;11.40;;;12.20;99.90;;;;;;4981437;28;20545;-71
2024/03/06 06:15:02;;;;;;;20.42;11.70;;;12.20;99.90;;;;;;5013066;28;20048;-71
2024/03/06 06:17:28;;;;;;;24.17;12.75;;;12.20;99.90;;;;;;4995460;28;20389;-71
2024/03/06 06:19:54;;;;;;;17.25;11.25;;;12.20;99.90;;;;;;5013091;28;20045;-71
2024/03/06 06:22:20;;;;;;;21.50;12.07;;;12.20;99.90;;;;;;5012637;28;20069;-71
2024/03/06 06:24:46;;;;;;;24.42;12.07;;;12.10;99.90;;;;;;5012858;28;20030;-71
2024/03/06 06:27:11;;;;;;;18.60;12.07;;;12.10;99.90;;;;;;4995067;28;20037;-71
2024/03/06 06:29:37;;;;;;;17.75;11.15;;;12.10;99.90;;;;;;4995239;28;20097;-71
2024/03/06 06:32:03;;;;;;;21.60;10.80;;;12.10;99.90;;;;;;5012670;28;20089;-71
2024/03/06 06:34:29;;;;;;;17.77;11.35;;;12.20;99.90;;;;;;5016854;28;20088;-72
2024/03/06 06:36:55;;;;;;;25.00;11.52;;;12.20;99.90;;;;;;5016396;28;20065;-70
2024/03/06 06:39:20;;;;;;;18.77;11.02;;;12.20;99.90;;;;;;5016890;28;20030;-71
2024/03/06 06:41:46;;;;;;;15.48;10.90;;;12.20;99.90;;;;;;5016451;28;20089;-71
2024/03/06 06:44:12;;;;;;;18.77;12.10;;;12.20;99.90;;;;;;5016467;28;20069;-71
2024/03/06 06:46:39;;;;;;;17.30;11.02;;;12.10;99.90;;;;;;5016350;28;20037;-71
2024/03/06 06:49:04;;;;;;;15.52;10.02;;;12.10;99.90;;;;;;5016448;28;20034;-72
2024/03/06 06:51:30;;;;;;;17.10;9.52;;;12.10;99.90;;;;;;5015902;28;20093;-71
2024/03/06 06:53:56;;;;;;;16.52;9.77;;;12.10;99.90;;;;;;5026189;28;20036;-71
2024/03/06 06:56:25;;;;;;;15.18;9.43;;;12.10;99.90;;;;;;5034736;28;20041;-72
2024/03/06 06:58:50;;;;;;;15.18;8.35;;;12.10;99.90;;;;;;5035222;28;20029;-72
2024/03/06 07:01:16;;;;;;;14.38;8.02;;;12.10;99.90;;;;;;5035056;28;20088;-71
2024/03/06 07:03:43;;;;;;;14.23;7.60;;;12.00;99.90;;;;;;5034401;28;20044;-72
2024/03/06 07:06:08;;;;;;;15.80;8.63;;;12.00;99.90;;;;;;5035631;28;20109;-71
2024/03/06 07:08:34;;;;;;;12.63;9.18;;;12.00;99.90;;;;;;5036128;28;20148;-71
2024/03/06 07:11:00;;;;;;;17.13;9.52;;;12.00;99.90;;;;;;5036527;28;20489;-71
2024/03/06 07:13:26;;;;;;;13.05;9.65;;;12.00;99.90;;;;;;5035938;28;20172;-71
2024/03/06 07:15:52;;;;;;;17.33;10.35;;;12.00;99.90;;;;;;5036232;28;20025;-71
2024/03/06 07:18:18;;;;;;;16.92;11.13;;;12.00;99.90;;;;;;5034602;28;20040;-71
2024/03/06 07:44:35;;;;;;;15.88;11.10;;;11.90;99.90;;;;;;4953928;28;20042;-72
2024/03/06 07:47:01;;;;;;;15.63;12.57;;;11.90;99.90;;;;;;4954553;29;20043;-72
2024/03/06 07:49:27;;;;;;;18.45;12.55;;;12.00;99.90;;;;;;4954500;29;20190;-72
2024/03/06 07:51:53;;;;;;;18.50;12.52;;;12.00;99.90;;;;;;5001641;28;20486;-73
2024/03/06 07:54:19;;;;;;;14.50;11.13;;;11.90;99.90;;;;;;5034682;28;20079;-72
2024/03/06 07:56:45;;;;;;;14.80;10.90;;;12.00;99.90;;;;;;5034975;28;20441;-72
2024/03/06 07:59:12;;;;;;;17.85;10.60;;;12.00;99.90;;;;;;5035016;28;20026;-73
2024/03/06 08:01:38;;;;;;;16.20;9.63;;;12.00;99.90;;;;;;5017274;28;20458;-73
2024/03/06 08:04:04;;;;;;;15.45;8.77;;;12.00;99.90;;;;;;5034926;28;20378;-72
2024/03/06 08:06:31;;;;;;;14.73;8.30;;;12.00;99.90;;;;;;5034814;28;20060;-72
2024/03/06 08:08:59;;;;;;;9.93;7.28;;;12.00;99.90;;;;;;5034836;28;20385;-72
2024/03/06 08:11:24;;;;;;;10.77;7.28;;;12.00;99.90;;;;;;5034720;28;20405;-73
2024/03/06 08:13:56;;;;;;;9.48;6.47;;;12.00;99.90;;;;;;5034476;28;20038;-73
2024/03/06 08:16:22;;;;;;;9.67;6.47;;;11.90;99.90;;;;;;5034550;28;20477;-73
2024/03/06 08:18:48;;;;;;;12.55;7.38;;;11.90;99.90;;;;;;5034510;28;20029;-73
2024/03/06 08:21:13;;;;;;;12.30;7.75;;;11.90;99.90;;;;;;5034684;28;20065;-73
2024/03/06 08:23:40;;;;;;;17.55;7.45;;;11.90;99.90;;;;;;5034511;28;20041;-72
2024/03/06 08:26:06;;;;;;;13.55;7.68;;;11.80;99.90;;;;;;5033924;28;20389;-73
2024/03/06 08:28:31;;;;;;;16.40;8.95;;;11.80;99.90;;;;;;5016647;28;20041;-72
2024/03/06 08:30:57;;;;;;;14.18;8.68;;;11.80;99.90;;;;;;5034549;28;20056;-72
2024/03/06 08:33:23;;;;;;;15.75;9.77;;;11.80;99.90;;;;;;5033723;28;20037;-72
2024/03/06 08:35:49;;;;;;;14.45;9.35;;;11.80;99.90;;;;;;5033076;28;20022;-72
2024/03/06 08:38:17;;;;;;;15.98;10.55;;;11.80;99.90;;;;;;5016720;28;20042;-73
2024/03/06 08:40:45;;;;;;;17.60;11.60;;;11.80;99.90;;;;;;5034311;28;20473;-72
2024/03/06 08:43:15;;;;;;;16.83;11.30;;;11.80;99.90;;;;;;5033970;28;20033;-73
2024/03/06 08:45:41;;;;;;;17.73;11.93;;;11.80;99.90;;;;;;5033735;28;20037;-72
2024/03/06 08:48:07;;;;;;;14.45;10.95;;;11.70;99.90;;;;;;5034937;28;20124;-72
2024/03/06 08:50:33;;;;;;;20.45;11.85;;;11.70;99.90;;;;;;5034565;28;20157;-72
2024/03/06 08:53:02;;;;;;;17.10;11.73;;;11.70;99.90;;;;;;5034484;28;20049;-72
2024/03/06 08:56:14;;;;;;;14.07;10.27;;;11.70;99.90;;;;;;5034324;28;20037;-72
2024/03/06 08:58:55;;;;;;;16.17;10.07;;;11.70;99.90;;;;;;4954114;29;20038;-72
2024/03/06 09:02:18;;;;;;;14.13;10.00;;;11.70;99.90;;;;;;4954182;29;20043;-72
2024/03/06 09:05:23;;;;;;;16.25;9.43;;;11.60;99.90;;;;;;4906446;29;20074;-72
2024/03/06 09:14:35;;;;;;;13.88;10.30;;;11.60;99.90;;;;;;4886839;29;20080;-72
2024/03/06 09:20:29;;;;;;;13.88;8.45;;;11.60;99.90;;;;;;4893284;29;20035;-74
2024/03/06 09:22:56;;;;;;;12.82;8.57;;;11.50;99.90;;;;;;5005576;28;20068;-74
2024/03/06 09:25:22;;;;;;;12.63;7.88;;;11.50;99.90;;;;;;5033553;28;20033;-73
2024/03/06 09:27:48;;;;;;;11.90;7.72;;;11.50;99.90;;;;;;5033492;28;20048;-74
2024/03/06 09:30:15;;;;;;;13.52;7.30;;;11.50;99.90;;;;;;5033474;28;20116;-74
2024/03/06 09:32:41;;;;;;;9.40;6.45;;;11.50;99.90;;;;;;5033195;28;20041;-74
2024/03/06 09:35:08;;;;;;;9.98;5.75;;;11.40;99.90;;;;;;5012254;28;20747;-73
2024/03/06 09:37:33;;;;;;;7.63;4.47;;;11.50;99.90;;;;;;5013885;28;20037;-73
2024/03/06 09:39:59;;;;;;;7.28;4.10;;;11.50;99.90;;;;;;5030459;28;20032;-73
2024/03/06 09:42:26;;;;;;;5.18;3.28;;;11.50;99.90;;;;;;5031176;28;20034;-74
2024/03/06 09:44:52;;;;;;;4.05;3.05;;;11.50;99.90;;;;;;5030706;28;20036;-73
2024/03/06 09:47:26;;;;;;;5.50;3.47;;;11.50;99.90;;;;;;5030590;28;20131;-72
2024/03/06 09:49:55;;;;;;;5.95;3.08;;;11.50;99.90;;;;;;5013196;28;20412;-71
2024/03/06 09:52:27;;;;;;;6.00;3.38;;;11.40;99.90;;;;;;5030735;28;20045;-73
2024/03/06 09:54:56;;;;;;;7.15;3.53;;;11.50;99.90;;;;;;5030553;28;20030;-72
2024/03/06 09:57:22;;;;;;;5.72;3.35;;;11.40;99.90;;;;;;5032499;28;20034;-73
2024/03/06 09:59:48;;;;;;;7.40;3.40;;;11.50;99.90;;;;;;5032263;28;20040;-72
2024/03/06 10:02:37;;;;;;;6.22;3.35;;;11.50;99.90;;;;;;5031801;28;20092;-73
2024/03/06 10:05:05;;;;;;;4.50;2.70;;;11.50;99.90;;;;;;5031271;28;20051;-73
2024/03/06 10:07:31;;;;;;;3.85;2.97;;;11.50;99.90;;;;;;5030961;28;20172;-73
2024/03/06 10:09:58;;;;;;;4.18;3.00;;;11.50;99.90;;;;;;5031196;28;20049;-73
2024/03/06 10:12:24;;;;;;;4.65;3.08;;;11.50;99.90;;;;;;5031278;28;20073;-73
2024/03/06 10:14:53;;;;;;;4.05;2.47;;;11.60;99.90;;;;;;5031013;28;20065;-73
2024/03/06 10:17:22;;;;;;;4.50;3.00;;;11.60;99.90;;;;;;5031787;28;20491;-73
2024/03/06 10:19:52;;;;;;;5.78;3.10;;;11.60;99.90;;;;;;5033536;28;20077;-73
2024/03/06 10:22:24;;;;;;;5.93;2.97;;;11.70;99.90;;;;;;5033340;28;20065;-72
2024/03/06 10:24:58;;;;;;;4.03;3.10;;;11.70;99.90;;;;;;5031983;28;20084;-74
2024/03/06 10:27:27;;;;;;;4.55;2.00;;;11.70;99.90;;;;;;5030415;28;20049;-75
2024/03/06 10:37:13;;;;;;;3.00;2.20;;;11.70;99.90;;;;;;4914011;29;20028;-74
2024/03/06 10:43:05;;;;;;;3.33;2.45;;;11.70;99.90;;;;;;4910520;29;20043;-73
2024/03/06 10:45:51;;;;;;;4.05;2.38;;;11.80;99.90;;;;;;4948815;28;20047;-75
2024/03/06 10:48:20;;;;;;;5.00;2.90;;;11.80;99.90;;;;;;4982293;28;20053;-74
2024/03/06 10:50:48;;;;;;;4.05;2.50;;;11.90;99.90;;;;;;5011892;28;20034;-74
2024/03/06 10:53:16;;;;;;;5.78;2.50;;;11.90;99.90;;;;;;4993270;28;20054;-75
2024/03/06 10:55:46;;;;;;;3.33;2.30;;;11.90;99.90;;;;;;4993457;28;20035;-76
2024/03/06 10:58:12;;;;;;;3.63;2.22;;;11.90;99.90;;;;;;4993212;28;20420;-77
2024/03/06 11:00:48;;;;;;;3.92;2.83;;;12.00;99.90;;;;;;4993516;28;20437;-74
2024/03/06 11:03:15;;;;;;;3.35;2.13;;;12.00;99.90;;;;;;5012665;28;20136;-73
2024/03/06 11:05:43;;;;;;;3.47;2.03;;;12.00;99.90;;;;;;5011507;28;20430;-75
2024/03/06 11:08:11;;;;;;;3.10;1.90;;;12.00;99.90;;;;;;5011451;28;20457;-73
2024/03/06 11:10:38;;;;;;;3.60;2.10;;;12.10;99.90;;;;;;5012471;28;20401;-73
2024/03/06 11:13:24;;;;;;;3.70;2.65;;;12.10;99.90;;;;;;5012320;28;20054;-73
2024/03/06 11:15:54;;;;;;;3.10;2.40;;;12.10;99.90;;;;;;5012058;28;20431;-74
2024/03/06 11:18:28;;;;;;;3.13;2.20;;;12.10;99.90;;;;;;5012188;28;20106;-73
2024/03/06 11:21:03;;;;;;;3.65;1.88;;;12.10;99.90;;;;;;5015181;28;20487;-77
2024/03/06 11:23:30;;;;;;;4.13;1.83;;;12.10;99.90;;;;;;4999719;28;20482;-73
2024/03/06 11:26:06;;;;;;;2.30;1.67;;;12.10;99.90;;;;;;4996081;28;20027;-73
2024/03/06 11:28:37;;;;;;;3.78;1.90;;;12.10;99.90;;;;;;4995943;28;20501;-74
2024/03/06 11:31:18;;;;;;;4.75;3.17;;;12.20;99.90;;;;;;4995697;28;20506;-73
2024/03/06 11:33:52;;;;;;;4.25;2.83;;;12.20;99.90;;;;;;4995967;28;20045;-73
2024/03/06 11:36:28;;;;;;;6.07;2.45;;;12.20;99.90;;;;;;4995862;28;20038;-72
2024/03/06 11:39:08;;;;;;;4.38;2.20;;;12.20;99.90;;;;;;4995686;28;20034;-77
2024/03/06 11:41:49;;;;;;;3.50;2.10;;;12.20;99.90;;;;;;4996093;28;20467;-77
2024/03/06 11:44:16;;;;;;;3.20;2.13;;;12.20;99.90;;;;;;4995714;28;20034;-73
2024/03/06 11:46:43;;;;;;;4.93;2.10;;;12.20;99.90;;;;;;4996604;28;20501;-74
2024/03/06 11:49:20;;;;;;;3.22;2.00;;;12.20;99.90;;;;;;5035097;28;20033;-78
2024/03/06 11:51:47;;;;;;;4.05;2.20;;;12.30;99.90;;;;;;5034924;28;20499;-77
2024/03/06 11:54:13;;;;;;;4.22;2.40;;;12.30;99.90;;;;;;5035071;28;20566;-77
2024/03/06 11:56:45;;;;;;;3.33;2.10;;;12.30;99.90;;;;;;5035579;28;20075;-72
2024/03/06 11:59:11;;;;;;;3.20;1.95;;;12.30;99.90;;;;;;5034547;28;20121;-73
2024/03/06 12:01:38;;;;;;;3.95;2.45;;;12.30;99.90;;;;;;5033852;28;20361;-73
2024/03/06 12:04:37;;;;;;;;;;;;;;;;;;;;;
2024/03/06 12:11:07;;;;;;;6.38;1.80;;;12.40;99.90;;;;;;4895366;29;20128;-73
2024/03/06 12:21:17;;;;;;;2.58;1.40;;;12.50;99.90;;;;;;4767206;30;20039;-73
2024/03/06 12:23:42;;;;;;;1.67;1.00;;;12.50;99.90;;;;;;4756213;29;20035;-73
2024/03/06 12:30:11;;;;;;;2.58;1.17;;;12.60;99.90;;;;;;4750461;30;20064;-72
2024/03/06 12:32:38;;;;;;;3.95;1.30;;;12.60;99.90;;;;;;4790970;29;20467;-72
2024/03/06 12:35:05;;;;;;;2.20;1.30;;;12.70;99.90;;;;;;4979964;28;20048;-73
2024/03/06 12:37:32;;;;;;;2.63;1.00;;;12.70;99.90;;;;;;5014405;28;20425;-73
2024/03/06 12:39:58;;;;;;;3.20;1.10;;;12.70;99.90;;;;;;5014449;28;20034;-73
2024/03/06 12:42:26;;;;;;;4.43;1.00;;;12.70;99.90;;;;;;5014076;28;20049;-73
2024/03/06 12:44:52;;;;;;;2.83;0.82;;;12.70;99.90;;;;;;5026951;28;20463;-73
2024/03/06 12:47:18;;;;;;;4.85;1.10;;;12.80;99.90;;;;;;5034034;28;20077;-73
2024/03/06 12:49:43;;;;;;;4.30;1.13;;;12.70;99.90;;;;;;5033957;28;20446;-73
2024/03/06 12:52:09;;;;;;;2.25;1.02;;;12.70;99.90;;;;;;5033405;28;20124;-73
2024/03/06 12:54:35;;;;;;;1.58;0.93;;;12.70;99.90;;;;;;5033506;28;20064;-72
2024/03/06 12:57:01;;;;;;;1.60;0.98;;;12.70;99.90;;;;;;5033638;28;20033;-73
2024/03/06 12:59:27;;;;;;;5.22;0.93;;;12.70;99.90;;;;;;5015826;28;20049;-73
2024/03/06 13:01:54;;;;;;;3.40;1.35;;;12.60;99.90;;;;;;5033615;28;20059;-73
2024/03/06 13:04:19;;;;;;;2.38;1.67;;;12.70;99.90;;;;;;5033582;28;20083;-74
2024/03/06 13:06:45;;;;;;;2.55;1.42;;;12.70;99.90;;;;;;5033169;28;20037;-71
2024/03/06 13:09:12;;;;;;;2.55;1.10;;;12.70;99.90;;;;;;5033470;28;20129;-73
2024/03/06 13:11:37;;;;;;;3.60;1.10;;;12.60;99.90;;;;;;5033600;28;20037;-73
2024/03/06 13:14:03;;;;;;;3.30;1.42;;;12.70;99.90;;;;;;5032438;28;20029;-72
2024/03/06 13:16:29;;;;;;;2.28;1.15;;;12.60;99.90;;;;;;5033579;28;20087;-72
2024/03/06 13:18:56;;;;;;;3.15;1.50;;;12.70;99.90;;;;;;5014526;28;20112;-71
2024/03/06 13:21:23;;;;;;;2.90;1.20;;;12.60;99.90;;;;;;5033150;28;20040;-72
2024/03/06 13:23:49;;;;;;;2.40;1.10;;;12.70;99.90;;;;;;5033149;28;20022;-72
2024/03/06 13:26:15;;;;;;;1.75;1.05;;;12.70;99.90;;;;;;5015882;28;20501;-72
2024/03/06 13:28:41;;;;;;;3.30;1.30;;;12.70;99.90;;;;;;5034154;28;20037;-73
2024/03/06 13:31:07;;;;;;;1.75;1.15;;;12.60;99.90;;;;;;5033844;28;20038;-73
2024/03/06 13:33:33;;;;;;;4.63;1.80;;;12.70;99.90;;;;;;5033986;28;20044;-73
2024/03/06 13:35:59;;;;;;;2.25;1.30;;;12.70;99.90;;;;;;5033878;28;20040;-73
2024/03/06 13:38:25;;;;;;;6.35;1.10;;;12.70;99.90;;;;;;5015874;28;20041;-73
2024/03/06 14:02:12;;;;;;;2.33;0.70;;;12.80;99.90;;;;;;4839906;29;20471;-73
2024/03/06 14:04:38;;;;;;;3.67;0.80;;;12.70;99.90;;;;;;4838789;29;20414;-72
2024/03/06 14:07:04;;;;;;;4.15;0.80;;;12.70;99.90;;;;;;4879380;29;20040;-72
2024/03/06 14:09:30;;;;;;;1.95;0.68;;;12.70;99.90;;;;;;4932082;29;20046;-72
2024/03/06 14:11:57;;;;;;;1.67;0.50;;;12.60;99.90;;;;;;4931661;29;20432;-71
2024/03/06 14:14:23;;;;;;;2.13;0.60;;;12.70;99.90;;;;;;4955486;28;20049;-72
2024/03/06 14:16:49;;;;;;;1.00;0.70;;;12.60;99.90;;;;;;5014116;28;20045;-73
2024/03/06 14:19:15;;;;;;;2.15;0.52;;;12.60;99.90;;;;;;5032391;28;20046;-72
2024/03/06 14:21:40;;;;;;;3.65;0.60;;;12.60;99.90;;;;;;5032128;28;20073;-73
2024/03/06 14:24:06;;;;;;;8.23;0.75;;;12.60;99.90;;;;;;5032390;28;20083;-72
2024/03/06 14:26:33;;;;;;;2.05;0.93;;;12.60;99.90;;;;;;5014982;28;20034;-73
2024/03/06 14:29:03;;;;;;;2.65;0.80;;;12.60;99.90;;;;;;5032015;28;20500;-72
2024/03/06 14:31:29;;;;;;;1.92;0.98;;;12.60;99.90;;;;;;5032188;28;20037;-73
2024/03/06 14:33:55;;;;;;;2.97;1.17;;;12.60;99.90;;;;;;5032329;28;20095;-73
2024/03/06 14:36:27;;;;;;;2.40;1.02;;;12.60;99.90;;;;;;5032043;28;20096;-72
2024/03/06 14:38:53;;;;;;;2.47;1.20;;;12.50;99.90;;;;;;5031249;28;20516;-73
2024/03/06 14:41:21;;;;;;;6.20;1.58;;;12.50;99.90;;;;;;5031241;28;20076;-73
2024/03/06 14:43:47;;;;;;;5.38;1.13;;;12.50;99.90;;;;;;5030464;28;20537;-74